createdAt,value
2023-05-08T00:02:05.342Z,15.40
2023-05-08T00:04:34.935Z,15.40
2023-05-08T00:07:03.201Z,15.30
2023-05-08T00:09:31.383Z,15.30
2023-05-08T00:11:59.578Z,15.30
2023-05-08T00:14:27.810Z,15.30
2023-05-08T00:16:56.047Z,15.20
2023-05-08T00:19:24.614Z,15.20
2023-05-08T00:21:54.211Z,15.20
2023-05-08T00:24:22.711Z,15.10
2023-05-08T00:26:50.909Z,15.10
2023-05-08T00:29:19.139Z,15.10
2023-05-08T00:31:47.545Z,15.10
2023-05-08T00:34:15.883Z,15.00
2023-05-08T00:36:44.007Z,14.90
2023-05-08T00:39:13.844Z,15.00
2023-05-08T00:41:42.610Z,15.00
2023-05-08T00:44:10.807Z,15.00
2023-05-08T00:46:39.322Z,14.90
2023-05-08T00:49:07.884Z,14.80
2023-05-08T00:51:36.216Z,14.90
2023-05-08T00:54:05.085Z,15.00
2023-05-08T00:56:37.373Z,15.00
2023-05-08T00:59:09.419Z,15.00
2023-05-08T01:01:38.710Z,14.90
2023-05-08T01:04:07.580Z,14.80
2023-05-08T01:06:36.896Z,14.80
2023-05-08T01:09:05.409Z,14.80
2023-05-08T01:11:40.733Z,14.80
2023-05-08T01:14:18.561Z,14.80
2023-05-08T01:16:57.740Z,14.70
2023-05-08T01:19:56.547Z,14.60
2023-05-08T01:22:45.447Z,14.50
2023-05-08T01:25:44.639Z,14.50
2023-05-08T01:28:44.895Z,14.50
2023-05-08T01:31:26.155Z,14.50
2023-05-08T01:34:06.609Z,14.50
2023-05-08T01:36:42.618Z,14.50
2023-05-08T01:39:21.538Z,14.60
2023-05-08T01:41:58.246Z,14.60
2023-05-08T01:44:33.825Z,14.60
2023-05-08T01:47:08.955Z,14.70
2023-05-08T01:49:43.345Z,14.70
2023-05-08T01:52:19.705Z,14.50
2023-05-08T01:54:57.544Z,14.50
2023-05-08T01:57:30.322Z,14.40
2023-05-08T02:00:02.477Z,14.40
2023-05-08T02:02:32.520Z,14.40
2023-05-08T02:05:05.933Z,14.40
2023-05-08T02:07:38.005Z,14.40
2023-05-08T02:10:08.400Z,14.30
2023-05-08T02:12:39.036Z,14.30
2023-05-08T02:15:10.717Z,14.20
2023-05-08T02:17:41.007Z,14.20
2023-05-08T02:20:15.077Z,14.20
2023-05-08T02:22:46.467Z,14.30
2023-05-08T02:25:16.463Z,14.30
2023-05-08T02:27:47.021Z,14.30
2023-05-08T02:30:17.736Z,14.20
2023-05-08T02:32:47.885Z,14.10
2023-05-08T02:35:19.742Z,14.00
2023-05-08T02:37:53.053Z,14.10
2023-05-08T02:40:23.947Z,14.10
2023-05-08T02:42:52.275Z,14.20
2023-05-08T02:45:21.253Z,14.20
2023-05-08T02:47:55.593Z,14.20
2023-05-08T02:50:34.297Z,14.10
2023-05-08T02:53:06.118Z,14.10
2023-05-08T02:55:41.158Z,14.10
2023-05-08T02:58:18.767Z,13.90
2023-05-08T03:00:54.107Z,13.80
2023-05-08T03:03:28.042Z,13.80
2023-05-08T03:06:01.253Z,13.80
2023-05-08T03:08:32.618Z,13.80
2023-05-08T03:11:07.087Z,13.80
2023-05-08T03:13:40.236Z,13.90
2023-05-08T03:16:17.079Z,13.90
2023-05-08T03:18:52.659Z,14.00
2023-05-08T03:21:24.115Z,14.00
2023-05-08T03:23:54.449Z,14.00
2023-05-08T03:26:22.694Z,14.10
2023-05-08T03:28:52.502Z,13.90
2023-05-08T03:31:22.087Z,13.80
2023-05-08T03:33:55.283Z,13.70
2023-05-08T03:36:27.222Z,13.70
2023-05-08T03:38:55.591Z,13.70
2023-05-08T03:41:24.036Z,13.80
2023-05-08T03:43:52.859Z,13.80
2023-05-08T03:46:22.268Z,14.10
2023-05-08T03:48:51.727Z,14.20
2023-05-08T03:51:20.755Z,14.20
2023-05-08T03:53:50.356Z,14.20
2023-05-08T03:56:18.570Z,14.30
2023-05-08T03:58:53.032Z,14.30
2023-05-08T04:01:27.246Z,14.20
2023-05-08T04:04:04.354Z,14.20
2023-05-08T04:06:49.539Z,14.20
2023-05-08T04:09:27.697Z,14.20
2023-05-08T04:12:06.790Z,14.20
2023-05-08T04:14:44.326Z,14.30
2023-05-08T04:17:17.193Z,14.30
2023-05-08T04:19:48.383Z,14.20
2023-05-08T04:22:18.093Z,14.30
2023-05-08T04:24:49.339Z,14.30
2023-05-08T04:27:18.164Z,14.30
2023-05-08T04:29:46.544Z,14.30
2023-05-08T04:32:15.563Z,14.40
2023-05-08T04:34:44.048Z,14.40
2023-05-08T04:37:27.288Z,14.40
2023-05-08T04:39:56.948Z,14.40
2023-05-08T04:42:26.979Z,14.40
2023-05-08T04:44:55.893Z,14.50
2023-05-08T04:47:24.734Z,14.50
2023-05-08T04:49:53.054Z,14.50
2023-05-08T04:52:21.435Z,14.50
2023-05-08T04:54:49.665Z,14.50
2023-05-08T04:57:19.211Z,14.50
2023-05-08T04:59:47.558Z,14.50
2023-05-08T05:02:15.829Z,14.50
2023-05-08T05:04:44.048Z,14.60
2023-05-08T05:07:12.298Z,14.70
2023-05-08T05:09:40.515Z,14.60
2023-05-08T05:12:08.813Z,14.70
2023-05-08T05:14:38.441Z,14.70
2023-05-08T05:17:06.642Z,14.70
2023-05-08T05:19:34.922Z,14.70
2023-05-08T05:22:03.193Z,14.70
2023-05-08T05:24:31.502Z,14.70
2023-05-08T05:27:00.450Z,14.70
2023-05-08T05:29:28.745Z,14.70
2023-05-08T05:31:58.361Z,14.80
2023-05-08T05:34:26.653Z,14.80
2023-05-08T05:36:54.901Z,14.90
2023-05-08T05:39:23.357Z,14.80
2023-05-08T05:41:51.696Z,14.90
2023-05-08T05:44:20.101Z,14.80
2023-05-08T05:46:48.539Z,14.90
2023-05-08T05:49:18.162Z,14.90
2023-05-08T05:51:46.399Z,15.00
2023-05-08T05:54:15.122Z,15.00
2023-05-08T05:56:43.498Z,15.00
2023-05-08T05:59:11.650Z,15.00
2023-05-08T06:01:39.894Z,15.10
2023-05-08T06:04:08.219Z,15.10
2023-05-08T06:06:37.790Z,15.10
2023-05-08T06:09:07.088Z,15.00
2023-05-08T06:11:35.620Z,15.10
2023-05-08T06:14:03.838Z,15.10
2023-05-08T06:16:32.179Z,15.00
2023-05-08T06:19:00.441Z,15.00
2023-05-08T06:21:29.524Z,15.10
2023-05-08T06:23:59.078Z,15.20
2023-05-08T06:26:27.348Z,15.10
2023-05-08T06:28:55.612Z,15.20
2023-05-08T06:31:23.918Z,15.20
2023-05-08T06:33:52.188Z,15.20
2023-05-08T06:36:20.776Z,15.20
2023-05-08T06:38:48.978Z,15.30
2023-05-08T06:41:18.531Z,15.30
2023-05-08T06:43:46.852Z,15.30
2023-05-08T06:46:15.116Z,15.30
2023-05-08T06:48:43.310Z,15.30
2023-05-08T06:51:11.672Z,15.30
2023-05-08T06:53:39.869Z,15.30
2023-05-08T06:56:09.014Z,15.40
2023-05-08T06:58:38.685Z,15.30
2023-05-08T07:01:07.109Z,15.40
2023-05-08T07:03:35.381Z,15.40
2023-05-08T07:06:03.696Z,15.40
2023-05-08T07:08:32.382Z,15.50
2023-05-08T07:11:00.627Z,15.50
2023-05-08T07:13:29.021Z,15.60
2023-05-08T07:15:58.729Z,15.60
2023-05-08T07:18:27.031Z,15.70
2023-05-08T07:20:55.214Z,15.70
2023-05-08T07:23:23.469Z,15.80
2023-05-08T07:25:51.631Z,15.80
2023-05-08T07:28:19.907Z,15.90
2023-05-08T07:30:48.108Z,16.00
2023-05-08T07:33:17.959Z,16.00
2023-05-08T07:35:46.756Z,16.10
2023-05-08T07:38:14.976Z,16.20
2023-05-08T07:40:43.167Z,16.20
2023-05-08T07:43:11.546Z,16.30
2023-05-08T07:45:39.737Z,16.30
2023-05-08T07:48:08.981Z,16.30
2023-05-08T07:50:38.536Z,16.30
2023-05-08T07:53:06.828Z,16.40
2023-05-08T07:55:35.102Z,16.40
2023-05-08T07:58:03.312Z,16.50
2023-05-08T08:00:31.617Z,16.50
2023-05-08T08:02:59.964Z,16.60
2023-05-08T08:05:28.546Z,16.70
2023-05-08T08:07:58.155Z,16.80
2023-05-08T08:10:27.912Z,16.80
2023-05-08T08:12:56.193Z,16.80
2023-05-08T08:15:24.442Z,16.80
2023-05-08T08:17:52.692Z,16.80
2023-05-08T08:20:21.312Z,16.90
2023-05-08T08:22:49.548Z,16.90
2023-05-08T08:25:19.137Z,16.90
2023-05-08T08:27:47.567Z,17.00
2023-05-08T08:30:18.311Z,17.00
2023-05-08T08:32:47.508Z,17.10
2023-05-08T08:35:16.678Z,17.10
2023-05-08T08:37:45.674Z,17.10
2023-05-08T08:40:14.229Z,17.10
2023-05-08T08:42:43.816Z,17.10
2023-05-08T08:45:13.027Z,17.00
2023-05-08T08:47:44.294Z,17.00
2023-05-08T08:50:14.729Z,17.10
2023-05-08T08:52:49.607Z,17.10
2023-05-08T08:55:19.355Z,17.20
2023-05-08T08:57:58.094Z,17.20
2023-05-08T09:00:32.091Z,17.20
2023-05-08T09:03:00.989Z,17.20
2023-05-08T09:05:30.616Z,17.20
2023-05-08T09:07:59.624Z,17.20
2023-05-08T09:10:27.885Z,17.30
2023-05-08T09:12:57.656Z,17.50
2023-05-08T09:15:25.954Z,17.90
2023-05-08T09:17:54.243Z,18.20
2023-05-08T09:20:23.673Z,18.20
2023-05-08T09:22:54.330Z,18.10
2023-05-08T09:25:22.903Z,18.20
2023-05-08T09:27:51.086Z,18.20
2023-05-08T09:30:20.702Z,18.50
2023-05-08T09:32:49.994Z,18.50
2023-05-08T09:35:18.326Z,18.60
2023-05-08T09:37:47.504Z,18.60
2023-05-08T09:40:18.377Z,18.70
2023-05-08T09:42:46.968Z,18.70
2023-05-08T09:45:31.045Z,18.60
2023-05-08T09:47:59.870Z,18.60
2023-05-08T09:50:28.272Z,18.50
2023-05-08T09:52:56.744Z,18.50
2023-05-08T09:55:24.953Z,18.50
2023-05-08T09:57:56.484Z,18.80
2023-05-08T10:00:26.144Z,18.80
2023-05-08T10:03:00.992Z,18.80
2023-05-08T10:05:31.810Z,18.80
2023-05-08T10:08:18.446Z,18.70
2023-05-08T10:10:47.261Z,18.90
2023-05-08T10:13:15.949Z,18.90
2023-05-08T10:15:45.841Z,18.80
2023-05-08T10:18:18.963Z,18.70
2023-05-08T10:20:49.517Z,18.70
2023-05-08T10:23:19.116Z,18.60
2023-05-08T10:25:49.681Z,18.70
2023-05-08T10:28:25.425Z,18.60
2023-05-08T10:30:55.588Z,18.70
2023-05-08T10:33:31.365Z,18.60
2023-05-08T10:36:00.093Z,18.60
2023-05-08T10:38:28.738Z,18.70
2023-05-08T10:40:58.548Z,18.70
2023-05-08T10:43:27.111Z,18.60
2023-05-08T10:45:57.663Z,18.60
2023-05-08T10:48:33.704Z,18.60
2023-05-08T10:51:13.946Z,18.50
2023-05-08T10:53:56.699Z,18.50
2023-05-08T10:56:28.041Z,18.50
2023-05-08T10:59:00.201Z,18.50
2023-05-08T11:01:28.542Z,18.50
2023-05-08T11:03:58.386Z,18.50
2023-05-08T11:06:46.611Z,18.50
2023-05-08T11:09:23.362Z,18.40
2023-05-08T11:12:09.660Z,18.50
2023-05-08T11:14:43.725Z,18.40
2023-05-08T11:17:12.330Z,18.50
2023-05-08T11:20:00.707Z,18.40
2023-05-08T11:22:32.687Z,18.40
2023-05-08T11:25:04.295Z,18.40
2023-05-08T11:27:40.901Z,18.40
2023-05-08T11:30:28.349Z,18.40
2023-05-08T11:33:33.297Z,18.40
2023-05-08T11:36:15.002Z,18.40
2023-05-08T11:38:44.287Z,18.40
2023-05-08T11:41:21.934Z,18.40
2023-05-08T11:44:22.008Z,18.40
2023-05-08T11:46:54.921Z,18.30
2023-05-08T11:49:29.094Z,18.30
2023-05-08T11:52:01.215Z,18.30
2023-05-08T11:54:32.101Z,18.30
2023-05-08T11:57:01.746Z,18.30
2023-05-08T11:59:30.119Z,18.20
2023-05-08T12:02:07.932Z,18.30
2023-05-08T12:04:46.531Z,18.30
2023-05-08T12:07:17.095Z,18.20
2023-05-08T12:09:47.428Z,18.30
2023-05-08T12:12:15.593Z,18.20
2023-05-08T12:14:43.816Z,18.30
2023-05-08T12:17:12.147Z,18.30
2023-05-08T12:19:40.626Z,18.30
2023-05-08T12:22:10.782Z,18.30
2023-05-08T12:24:40.603Z,18.30
2023-05-08T12:27:09.219Z,18.40
2023-05-08T12:29:38.702Z,18.40
2023-05-08T12:32:07.251Z,18.40
2023-05-08T12:34:36.243Z,18.40
2023-05-08T12:37:05.471Z,18.40
2023-05-08T12:39:38.962Z,18.50
2023-05-08T12:42:07.281Z,18.50
2023-05-08T12:44:35.522Z,18.50
2023-05-08T12:47:06.103Z,18.50
2023-05-08T12:49:34.658Z,18.50
2023-05-08T12:52:05.287Z,18.60
2023-05-08T12:54:35.570Z,18.60
2023-05-08T12:57:11.111Z,18.60
2023-05-08T12:59:39.431Z,18.60
2023-05-08T13:02:14.899Z,18.60
2023-05-08T13:04:43.786Z,18.70
2023-05-08T13:07:15.324Z,18.90
2023-05-08T13:09:58.572Z,18.90
2023-05-08T13:12:28.195Z,18.90
2023-05-08T13:14:56.553Z,18.90
2023-05-08T13:17:24.864Z,18.90
2023-05-08T13:19:53.089Z,18.90
2023-05-08T13:22:23.222Z,19.00
2023-05-08T13:24:51.431Z,19.00
2023-05-08T13:27:20.286Z,19.10
2023-05-08T13:29:49.843Z,19.10
2023-05-08T13:32:18.329Z,19.10
2023-05-08T13:34:50.156Z,19.10
2023-05-08T13:37:19.979Z,19.10
2023-05-08T13:39:48.248Z,19.10
2023-05-08T13:42:16.502Z,19.10
2023-05-08T13:44:44.768Z,19.20
2023-05-08T13:47:14.391Z,19.20
2023-05-08T13:49:44.170Z,19.20
2023-05-08T13:52:12.422Z,19.20
2023-05-08T13:54:40.786Z,19.30
2023-05-08T13:57:09.192Z,19.40
2023-05-08T13:59:37.514Z,19.50
2023-05-08T14:02:06.012Z,19.40
2023-05-08T14:04:35.694Z,19.40
2023-05-08T14:07:03.923Z,19.40
2023-05-08T14:09:32.200Z,19.30
2023-05-08T14:12:00.436Z,19.30
2023-05-08T14:14:28.622Z,19.40
2023-05-08T14:16:56.820Z,19.30
2023-05-08T14:19:25.013Z,19.40
2023-05-08T14:21:54.605Z,19.50
2023-05-08T14:24:22.908Z,19.60
2023-05-08T14:26:51.166Z,19.50
2023-05-08T14:29:19.888Z,19.50
2023-05-08T14:31:48.172Z,19.50
2023-05-08T14:34:16.406Z,19.50
2023-05-08T14:36:44.650Z,19.50
2023-05-08T14:39:14.370Z,19.40
2023-05-08T14:41:51.215Z,19.50
2023-05-08T14:44:23.586Z,19.40
2023-05-08T14:46:51.790Z,19.30
2023-05-08T14:49:32.883Z,19.30
2023-05-08T14:52:06.552Z,19.30
2023-05-08T14:54:36.286Z,19.30
2023-05-08T14:57:04.646Z,19.30
2023-05-08T14:59:32.833Z,19.30
2023-05-08T15:02:01.218Z,19.30
2023-05-08T15:04:29.572Z,19.40
2023-05-08T15:06:57.792Z,19.30
2023-05-08T15:09:26.000Z,19.40
2023-05-08T15:11:55.713Z,19.50
2023-05-08T15:14:24.458Z,19.30
2023-05-08T15:16:52.675Z,19.30
2023-05-08T15:19:20.939Z,19.30
2023-05-08T15:21:49.171Z,19.30
2023-05-08T15:24:17.416Z,19.20
2023-05-08T15:26:45.650Z,19.10
2023-05-08T15:29:15.186Z,19.10
2023-05-08T15:31:43.445Z,19.00
2023-05-08T15:34:14.001Z,19.10
2023-05-08T15:36:44.532Z,19.00
2023-05-08T15:39:12.792Z,19.00
2023-05-08T15:41:41.369Z,19.00
2023-05-08T15:44:09.648Z,19.00
2023-05-08T15:46:39.212Z,19.00
2023-05-08T15:49:07.386Z,19.00
2023-05-08T15:51:35.618Z,19.00
2023-05-08T15:54:03.979Z,19.00
2023-05-08T15:56:32.710Z,19.00
2023-05-08T15:59:00.971Z,19.00
2023-05-08T16:01:29.163Z,19.00
2023-05-08T16:03:58.778Z,19.10
2023-05-08T16:06:27.119Z,19.10
2023-05-08T16:08:55.318Z,19.10
2023-05-08T16:11:23.622Z,19.10
2023-05-08T16:13:51.891Z,19.10
2023-05-08T16:16:20.090Z,19.10
2023-05-08T16:18:48.411Z,19.10
2023-05-08T16:21:18.064Z,19.10
2023-05-08T16:23:46.286Z,19.00
2023-05-08T16:26:16.493Z,19.10
2023-05-08T16:28:44.773Z,19.10
2023-05-08T16:31:12.999Z,19.10
2023-05-08T16:33:41.295Z,19.20
2023-05-08T16:36:10.214Z,19.20
2023-05-08T16:38:42.432Z,19.20
2023-05-08T16:41:12.357Z,19.20
2023-05-08T16:43:40.641Z,19.20
2023-05-08T16:46:09.087Z,19.10
2023-05-08T16:48:37.366Z,19.20
2023-05-08T16:51:05.734Z,19.20
2023-05-08T16:53:33.954Z,19.20
2023-05-08T16:56:03.628Z,19.20
2023-05-08T16:58:31.901Z,19.20
2023-05-08T17:01:00.187Z,19.20
2023-05-08T17:03:28.511Z,19.20
2023-05-08T17:05:56.883Z,19.20
2023-05-08T17:08:25.090Z,19.10
2023-05-08T17:10:54.251Z,19.10
2023-05-08T17:13:23.993Z,19.20
2023-05-08T17:15:52.611Z,19.10
2023-05-08T17:18:21.186Z,19.10
2023-05-08T17:20:49.607Z,19.10
2023-05-08T17:23:17.904Z,19.10
2023-05-08T17:25:46.141Z,19.00
2023-05-08T17:28:14.367Z,19.00
2023-05-08T17:30:45.358Z,19.10
2023-05-08T17:33:14.583Z,19.10
2023-05-08T17:35:42.845Z,19.10
2023-05-08T17:38:11.045Z,19.00
2023-05-08T17:40:40.037Z,19.00
2023-05-08T17:43:08.665Z,19.00
2023-05-08T17:45:36.951Z,19.00
2023-05-08T17:48:07.139Z,18.90
2023-05-08T17:50:39.337Z,18.90
2023-05-08T17:53:07.666Z,18.90
2023-05-08T17:55:35.966Z,18.90
2023-05-08T17:58:04.202Z,18.90
2023-05-08T18:00:32.518Z,18.80
2023-05-08T18:03:01.096Z,18.80
2023-05-08T18:05:30.965Z,18.80
2023-05-08T18:07:59.415Z,18.80
2023-05-08T18:10:27.590Z,18.70
2023-05-08T18:12:55.880Z,18.70
2023-05-08T18:15:24.244Z,18.70
2023-05-08T18:17:53.566Z,18.70
2023-05-08T18:20:22.077Z,18.70
2023-05-08T18:22:51.756Z,18.70
2023-05-08T18:25:20.632Z,18.60
2023-05-08T18:27:50.064Z,18.60
2023-05-08T18:30:18.765Z,18.60
2023-05-08T18:32:47.022Z,18.50
2023-05-08T18:35:15.324Z,18.50
2023-05-08T18:37:43.578Z,18.50
2023-05-08T18:40:14.650Z,18.40
2023-05-08T18:42:43.160Z,18.40
2023-05-08T18:45:12.884Z,18.40
2023-05-08T18:47:41.191Z,18.30
2023-05-08T18:50:11.239Z,18.30
2023-05-08T18:52:40.700Z,18.30
2023-05-08T18:55:10.018Z,18.30
2023-05-08T18:57:39.615Z,18.30
2023-05-08T19:00:09.661Z,18.20
2023-05-08T19:02:37.996Z,18.20
2023-05-08T19:05:07.725Z,18.10
2023-05-08T19:07:36.323Z,18.10
2023-05-08T19:10:05.571Z,18.10
2023-05-08T19:12:33.910Z,18.00
2023-05-08T19:15:03.653Z,18.00
2023-05-08T19:17:32.049Z,18.00
2023-05-08T19:20:00.476Z,17.90
2023-05-08T19:22:28.856Z,17.90
2023-05-08T19:24:57.172Z,17.90
2023-05-08T19:27:26.176Z,17.90
2023-05-08T19:29:54.452Z,17.90
2023-05-08T19:32:24.286Z,17.90
2023-05-08T19:34:53.563Z,17.80
2023-05-08T19:37:21.804Z,17.80
2023-05-08T19:39:50.071Z,17.70
2023-05-08T19:42:18.331Z,17.70
2023-05-08T19:44:46.646Z,17.70
2023-05-08T19:47:15.017Z,17.60
2023-05-08T19:49:44.651Z,17.70
2023-05-08T19:52:13.245Z,17.80
2023-05-08T19:54:42.752Z,17.70
2023-05-08T19:57:11.281Z,17.80
2023-05-08T19:59:39.502Z,17.70
2023-05-08T20:02:08.281Z,17.70
2023-05-08T20:04:48.608Z,17.60
2023-05-08T20:07:26.378Z,17.50
2023-05-08T20:09:54.668Z,17.60
2023-05-08T20:12:22.986Z,17.60
2023-05-08T20:14:52.937Z,17.50
2023-05-08T20:17:21.375Z,17.50
2023-05-08T20:19:49.705Z,17.50
2023-05-08T20:22:18.091Z,17.50
2023-05-08T20:24:47.723Z,17.50
2023-05-08T20:27:16.029Z,17.50
2023-05-08T20:29:45.318Z,17.50
2023-05-08T20:32:16.310Z,17.40
2023-05-08T20:34:45.129Z,17.40
2023-05-08T20:37:13.750Z,17.30
2023-05-08T20:39:42.142Z,17.30
2023-05-08T20:42:12.972Z,17.20
2023-05-08T20:44:41.332Z,17.20
2023-05-08T20:47:09.693Z,17.20
2023-05-08T20:49:38.061Z,17.20
2023-05-08T20:52:06.675Z,17.30
2023-05-08T20:54:34.974Z,17.20
2023-05-08T20:57:03.196Z,17.20
2023-05-08T20:59:32.846Z,17.20
2023-05-08T21:02:01.074Z,17.20
2023-05-08T21:04:29.609Z,17.20
2023-05-08T21:06:58.782Z,17.20
2023-05-08T21:09:26.995Z,17.20
2023-05-08T21:11:55.265Z,17.20
2023-05-08T21:14:23.650Z,17.20
2023-05-08T21:16:54.077Z,17.20
2023-05-08T21:19:22.657Z,17.20
2023-05-08T21:21:51.045Z,17.20
2023-05-08T21:24:19.437Z,17.20
2023-05-08T21:26:47.642Z,17.30
2023-05-08T21:29:15.930Z,17.30
2023-05-08T21:31:44.292Z,17.30
2023-05-08T21:34:15.139Z,17.30
2023-05-08T21:36:43.404Z,17.30
2023-05-08T21:39:11.582Z,17.30
2023-05-08T21:41:39.854Z,17.30
2023-05-08T21:44:08.132Z,17.30
2023-05-08T21:46:36.426Z,17.30
2023-05-08T21:49:05.100Z,17.40
2023-05-08T21:51:35.103Z,17.30
2023-05-08T21:54:03.385Z,17.30
2023-05-08T21:56:31.614Z,17.30
2023-05-08T21:58:59.839Z,17.30
2023-05-08T22:01:28.144Z,17.30
2023-05-08T22:03:59.323Z,17.30
2023-05-08T22:06:27.646Z,17.30
2023-05-08T22:08:57.216Z,17.40
2023-05-08T22:11:25.902Z,17.30
2023-05-08T22:13:54.083Z,17.10
2023-05-08T22:16:22.370Z,17.10
2023-05-08T22:18:50.642Z,17.00
2023-05-08T22:21:18.834Z,17.00
2023-05-08T22:23:47.078Z,17.00
2023-05-08T22:26:16.650Z,17.00
2023-05-08T22:28:45.093Z,16.90
2023-05-08T22:31:14.400Z,16.90
2023-05-08T22:33:42.635Z,16.90
2023-05-08T22:36:11.539Z,16.80
2023-05-08T22:38:40.581Z,16.90
2023-05-08T22:41:09.175Z,16.90
2023-05-08T22:43:38.984Z,16.90
2023-05-08T22:46:07.729Z,16.90
2023-05-08T22:48:36.192Z,16.80
2023-05-08T22:51:04.896Z,16.80
2023-05-08T22:53:33.126Z,16.80
2023-05-08T22:56:01.326Z,16.80
2023-05-08T22:58:29.577Z,16.70
2023-05-08T23:00:59.712Z,16.80
2023-05-08T23:03:28.193Z,16.80
2023-05-08T23:05:56.496Z,16.80
2023-05-08T23:08:24.769Z,16.80
2023-05-08T23:10:52.943Z,16.80
2023-05-08T23:13:21.156Z,16.80
2023-05-08T23:15:49.428Z,16.70
2023-05-08T23:18:18.993Z,16.60
2023-05-08T23:20:47.187Z,16.60
2023-05-08T23:23:15.358Z,16.50
2023-05-08T23:25:44.570Z,16.50
2023-05-08T23:28:12.758Z,16.50
2023-05-08T23:30:40.953Z,16.40
2023-05-08T23:33:10.047Z,16.50
2023-05-08T23:35:39.655Z,16.40
2023-05-08T23:38:07.858Z,16.40
2023-05-08T23:40:36.090Z,16.40
2023-05-08T23:43:04.715Z,16.40
2023-05-08T23:45:32.997Z,16.40
2023-05-08T23:48:01.359Z,16.40
2023-05-08T23:50:29.688Z,16.30
2023-05-08T23:52:59.230Z,16.30
2023-05-08T23:55:27.499Z,16.30
2023-05-08T23:57:55.665Z,16.30
